createdAt,value
2019-05-29T00:00:29.250Z,75.50
2019-05-29T00:02:59.450Z,73.80
2019-05-29T00:05:29.591Z,74.10
2019-05-29T00:07:59.790Z,70.90
2019-05-29T00:10:30.136Z,72.90
2019-05-29T00:13:00.252Z,73.00
2019-05-29T00:15:30.560Z,72.90
2019-05-29T00:18:01.177Z,70.60
2019-05-29T00:20:31.297Z,71.40
2019-05-29T00:23:01.368Z,69.40
2019-05-29T00:25:31.751Z,69.00
2019-05-29T00:28:01.828Z,67.70
2019-05-29T00:30:32.080Z,67.80
2019-05-29T00:33:02.477Z,67.50
2019-05-29T00:35:33.762Z,67.40
2019-05-29T00:38:04.218Z,66.90
2019-05-29T00:40:34.810Z,66.50
2019-05-29T00:43:05.246Z,66.30
2019-05-29T00:45:35.406Z,64.40
2019-05-29T00:48:07.725Z,62.80
2019-05-29T00:50:38.181Z,60.00
2019-05-29T00:53:08.373Z,62.90
2019-05-29T00:55:38.500Z,65.40
2019-05-29T00:58:08.840Z,65.90
2019-05-29T01:00:39.063Z,65.20
2019-05-29T01:03:09.571Z,67.00
2019-05-29T01:05:40.601Z,66.90
2019-05-29T01:08:10.760Z,68.10
2019-05-29T01:10:41.158Z,71.90
2019-05-29T01:13:11.577Z,74.30
2019-05-29T01:15:41.763Z,73.50
2019-05-29T01:18:11.909Z,74.40
2019-05-29T01:20:41.989Z,72.70
2019-05-29T01:23:12.147Z,71.90
2019-05-29T01:25:42.266Z,70.30
2019-05-29T01:28:12.684Z,70.10
2019-05-29T01:30:43.110Z,67.00
2019-05-29T01:33:16.942Z,68.20
2019-05-29T01:35:45.200Z,69.40
2019-05-29T01:38:15.356Z,66.60
2019-05-29T01:40:45.439Z,65.80
2019-05-29T01:43:19.311Z,67.90
2019-05-29T01:45:49.748Z,67.40
2019-05-29T01:48:19.940Z,64.80
2019-05-29T01:50:51.313Z,67.60
2019-05-29T01:53:21.802Z,67.00
2019-05-29T01:55:55.300Z,69.20
2019-05-29T01:58:25.803Z,70.50
2019-05-29T02:00:56.322Z,68.60
2019-05-29T02:03:26.462Z,68.70
2019-05-29T02:05:58.016Z,68.30
2019-05-29T02:08:28.336Z,68.00
2019-05-29T02:10:58.802Z,68.60
2019-05-29T02:13:28.916Z,67.90
2019-05-29T02:16:01.308Z,67.40
2019-05-29T02:18:31.450Z,70.30
2019-05-29T02:21:02.949Z,69.80
2019-05-29T02:23:33.055Z,70.00
2019-05-29T02:26:04.958Z,71.90
2019-05-29T02:28:35.044Z,71.20
2019-05-29T02:31:06.291Z,72.00
2019-05-29T02:33:36.715Z,73.50
2019-05-29T02:36:06.815Z,77.10
2019-05-29T02:38:36.961Z,78.40
2019-05-29T02:41:07.182Z,79.20
2019-05-29T02:43:37.277Z,79.40
2019-05-29T02:46:07.397Z,80.40
2019-05-29T02:48:37.563Z,81.50
2019-05-29T02:51:12.092Z,80.70
2019-05-29T02:53:40.024Z,80.90
2019-05-29T02:56:10.196Z,76.50
2019-05-29T02:58:40.376Z,74.50
2019-05-29T03:01:10.861Z,70.90
2019-05-29T03:03:42.543Z,71.10
2019-05-29T03:06:13.199Z,70.10
2019-05-29T03:08:44.908Z,70.20
2019-05-29T03:11:19.054Z,68.10
2019-05-29T03:13:49.175Z,68.70
2019-05-29T03:16:23.631Z,68.40
2019-05-29T03:18:53.512Z,68.90
2019-05-29T03:21:24.117Z,67.10
2019-05-29T03:23:54.473Z,66.90
2019-05-29T03:26:27.678Z,67.10
2019-05-29T03:28:57.244Z,65.20
2019-05-29T03:31:30.932Z,66.60
2019-05-29T03:33:59.261Z,66.90
2019-05-29T03:36:35.828Z,68.10
2019-05-29T03:39:01.238Z,66.50
2019-05-29T03:41:32.758Z,69.40
2019-05-29T03:44:04.384Z,68.70
2019-05-29T03:46:42.729Z,66.70
2019-05-29T03:49:06.423Z,67.80
2019-05-29T03:51:38.983Z,69.00
2019-05-29T03:54:09.565Z,68.90
2019-05-29T03:56:39.668Z,67.70
2019-05-29T03:59:09.756Z,68.90
2019-05-29T04:01:40.127Z,67.80
2019-05-29T04:04:10.379Z,68.30
2019-05-29T04:06:40.496Z,68.20
2019-05-29T04:09:10.684Z,66.40
2019-05-29T04:11:40.853Z,67.50
2019-05-29T04:14:11.038Z,68.80
2019-05-29T04:16:58.095Z,69.60
2019-05-29T04:19:16.054Z,69.70
2019-05-29T04:21:46.594Z,67.00
2019-05-29T04:24:18.704Z,69.60
2019-05-29T04:26:51.626Z,66.90
2019-05-29T04:29:22.489Z,67.60
2019-05-29T04:31:53.872Z,66.10
2019-05-29T04:34:23.986Z,67.20
2019-05-29T04:36:54.237Z,66.80
2019-05-29T04:39:24.518Z,64.50
2019-05-29T04:41:54.761Z,65.30
2019-05-29T04:44:24.920Z,68.00
2019-05-29T04:47:10.371Z,65.90
2019-05-29T04:49:29.278Z,68.10
2019-05-29T04:52:00.175Z,67.90
2019-05-29T04:54:33.171Z,67.40
2019-05-29T04:57:02.134Z,64.80
2019-05-29T04:59:33.058Z,65.00
2019-05-29T05:02:03.377Z,64.80
2019-05-29T05:04:33.569Z,65.00
2019-05-29T05:07:05.460Z,68.80
2019-05-29T05:09:35.680Z,66.90
2019-05-29T05:12:08.077Z,63.80
2019-05-29T05:14:40.939Z,64.00
2019-05-29T05:17:25.912Z,63.30
2019-05-29T05:19:45.933Z,64.70
2019-05-29T05:22:16.345Z,68.10
2019-05-29T05:24:46.595Z,65.20
2019-05-29T05:27:16.967Z,66.70
2019-05-29T05:29:48.336Z,66.80
2019-05-29T05:32:20.414Z,66.00
2019-05-29T05:34:50.886Z,64.10
2019-05-29T05:37:23.006Z,62.40
2019-05-29T05:39:53.629Z,60.40
2019-05-29T05:42:24.709Z,60.80
2019-05-29T05:44:54.889Z,60.40
2019-05-29T05:47:25.023Z,62.20
2019-05-29T05:49:55.375Z,61.40
2019-05-29T05:52:25.524Z,60.70
2019-05-29T05:54:55.629Z,60.10
2019-05-29T05:57:25.762Z,61.30
2019-05-29T05:59:58.740Z,61.70
2019-05-29T06:02:29.331Z,64.10
2019-05-29T06:05:00.059Z,62.30
2019-05-29T06:07:34.098Z,62.90
2019-05-29T06:10:04.569Z,60.80
2019-05-29T06:12:36.247Z,59.70
2019-05-29T06:15:07.012Z,58.50
2019-05-29T06:17:38.762Z,59.70
2019-05-29T06:20:10.956Z,63.20
2019-05-29T06:22:43.487Z,62.90
2019-05-29T06:25:13.931Z,60.40
2019-05-29T06:27:44.038Z,60.00
2019-05-29T06:30:15.120Z,60.00
2019-05-29T06:32:45.697Z,60.80
2019-05-29T06:35:16.663Z,61.00
2019-05-29T06:37:48.960Z,61.10
2019-05-29T06:40:36.246Z,58.70
2019-05-29T06:43:12.675Z,61.30
2019-05-29T06:45:44.035Z,55.90
2019-05-29T06:48:57.487Z,54.20
2019-05-29T06:51:01.954Z,53.40
2019-05-29T06:53:32.114Z,54.40
2019-05-29T06:56:03.115Z,55.00
2019-05-29T06:58:33.862Z,53.30
2019-05-29T07:01:06.341Z,52.90
2019-05-29T07:03:37.624Z,54.20
2019-05-29T07:06:10.391Z,53.70
2019-05-29T07:08:46.510Z,54.70
2019-05-29T07:13:50.924Z,52.50
2019-05-29T07:16:23.901Z,51.50
2019-05-29T07:19:25.308Z,51.50
2019-05-29T07:21:38.948Z,50.50
2019-05-29T07:24:09.470Z,48.20
2019-05-29T07:26:41.076Z,48.00
2019-05-29T07:29:11.267Z,48.30
2019-05-29T07:31:41.558Z,48.70
2019-05-29T07:34:11.753Z,47.90
2019-05-29T07:36:43.895Z,46.60
2019-05-29T07:39:15.973Z,48.50
2019-05-29T07:41:46.139Z,48.90
2019-05-29T07:44:19.811Z,46.70
2019-05-29T07:46:50.404Z,43.60
2019-05-29T07:49:35.836Z,41.70
2019-05-29T07:51:53.598Z,39.50
2019-05-29T07:54:24.029Z,39.40
2019-05-29T07:56:57.472Z,39.20
2019-05-29T07:59:30.221Z,42.30
2019-05-29T08:02:00.375Z,40.40
2019-05-29T08:04:31.429Z,38.30
2019-05-29T08:07:01.528Z,36.50
2019-05-29T08:09:34.775Z,37.00
2019-05-29T08:12:05.273Z,37.40
2019-05-29T08:14:35.394Z,35.70
2019-05-29T08:17:05.661Z,37.00
2019-05-29T08:19:36.973Z,38.10
2019-05-29T08:22:07.082Z,37.10
2019-05-29T08:24:37.233Z,36.70
2019-05-29T08:27:10.781Z,37.50
2019-05-29T08:29:40.649Z,35.80
2019-05-29T08:32:12.195Z,36.90
2019-05-29T08:34:43.061Z,38.40
2019-05-29T08:37:13.984Z,35.20
2019-05-29T08:39:45.419Z,34.50
2019-05-29T08:42:23.335Z,35.70
2019-05-29T08:44:50.065Z,37.50
2019-05-29T08:47:23.228Z,35.60
2019-05-29T08:49:54.646Z,33.10
2019-05-29T08:52:24.851Z,33.70
2019-05-29T08:54:57.346Z,35.00
2019-05-29T08:57:27.492Z,34.70
2019-05-29T08:59:58.736Z,33.40
2019-05-29T09:02:29.276Z,32.00
2019-05-29T09:04:59.805Z,31.10
2019-05-29T09:07:29.927Z,32.30
2019-05-29T09:10:00.246Z,30.00
2019-05-29T09:12:31.228Z,29.60
2019-05-29T09:15:01.392Z,32.40
2019-05-29T09:17:34.490Z,31.40
2019-05-29T09:20:04.576Z,31.30
2019-05-29T09:22:34.752Z,30.40
2019-05-29T09:25:07.884Z,31.40
2019-05-29T09:27:38.106Z,33.00
2019-05-29T09:30:08.288Z,30.60
2019-05-29T09:32:50.265Z,33.00
2019-05-29T09:35:10.342Z,33.00
2019-05-29T09:37:40.521Z,32.20
2019-05-29T09:40:18.792Z,29.80
2019-05-29T09:42:49.264Z,31.70
2019-05-29T09:45:19.734Z,32.70
2019-05-29T09:47:49.926Z,30.20
2019-05-29T09:50:22.739Z,30.40
2019-05-29T09:52:54.451Z,30.70
2019-05-29T09:55:24.194Z,31.00
2019-05-29T09:57:58.577Z,29.90
2019-05-29T10:00:29.273Z,29.50
2019-05-29T10:03:03.887Z,30.40
2019-05-29T10:05:34.083Z,27.80
2019-05-29T10:08:04.454Z,28.70
2019-05-29T10:10:34.551Z,29.00
2019-05-29T10:13:04.890Z,29.90
2019-05-29T10:15:34.995Z,28.90
2019-05-29T10:18:09.979Z,27.40
2019-05-29T10:20:37.217Z,27.60
2019-05-29T10:23:07.409Z,27.40
2019-05-29T10:25:39.440Z,28.80
2019-05-29T10:28:09.682Z,27.20
2019-05-29T10:30:42.070Z,27.00
2019-05-29T10:33:13.208Z,28.30
2019-05-29T10:35:44.655Z,26.20
2019-05-29T10:38:15.204Z,24.80
2019-05-29T10:41:05.191Z,25.80
2019-05-29T10:43:34.270Z,25.40
2019-05-29T10:45:58.405Z,25.80
2019-05-29T10:48:29.056Z,25.00
2019-05-29T10:50:59.167Z,25.40
2019-05-29T10:53:29.917Z,24.20
2019-05-29T10:56:02.769Z,23.70
2019-05-29T10:58:47.998Z,24.00
2019-05-29T11:01:05.768Z,22.30
2019-05-29T11:03:36.338Z,23.10
2019-05-29T11:06:07.031Z,22.80
2019-05-29T11:08:37.341Z,21.50
2019-05-29T11:11:08.097Z,22.60
2019-05-29T11:13:38.581Z,21.00
2019-05-29T11:16:09.088Z,22.40
2019-05-29T11:18:40.304Z,22.00
2019-05-29T11:21:11.024Z,23.40
2019-05-29T11:23:42.890Z,22.90
2019-05-29T11:26:25.663Z,22.70
2019-05-29T11:29:08.806Z,23.70
2019-05-29T11:31:46.128Z,22.90
2019-05-29T11:34:16.403Z,23.90
2019-05-29T11:36:47.299Z,23.90
2019-05-29T11:39:22.562Z,24.40
2019-05-29T11:41:54.998Z,24.90
2019-05-29T11:44:29.648Z,24.30
2019-05-29T11:47:02.399Z,24.80
2019-05-29T11:49:35.925Z,24.40
2019-05-29T11:52:23.280Z,24.60
2019-05-29T11:54:41.395Z,25.30
2019-05-29T11:57:19.090Z,27.00
2019-05-29T11:59:53.867Z,26.00
2019-05-29T12:02:41.237Z,24.90
2019-05-29T12:05:12.532Z,24.80
2019-05-29T12:07:45.158Z,24.90
2019-05-29T12:10:18.696Z,24.70
2019-05-29T12:12:53.417Z,23.10
2019-05-29T12:15:25.002Z,23.60
2019-05-29T12:18:21.941Z,23.90
2019-05-29T12:20:33.966Z,24.20
2019-05-29T12:23:22.940Z,22.80
2019-05-29T12:26:10.319Z,23.00
2019-05-29T12:28:33.937Z,22.00
2019-05-29T12:31:05.801Z,22.90
2019-05-29T12:33:35.924Z,21.30
2019-05-29T12:36:08.126Z,21.90
2019-05-29T12:38:40.598Z,21.60
2019-05-29T12:41:14.135Z,22.00
2019-05-29T12:43:48.885Z,21.20
2019-05-29T12:46:20.903Z,21.50
2019-05-29T12:48:55.335Z,21.30
2019-05-29T12:51:28.362Z,19.40
2019-05-29T12:54:02.322Z,20.40
2019-05-29T12:56:34.682Z,21.10
2019-05-29T12:59:06.739Z,21.10
2019-05-29T13:01:37.624Z,20.90
2019-05-29T13:04:11.889Z,21.20
2019-05-29T13:06:42.856Z,21.30
2019-05-29T13:09:15.874Z,18.70
2019-05-29T13:11:48.033Z,19.90
2019-05-29T13:14:21.059Z,17.60
2019-05-29T13:16:51.220Z,18.10
2019-05-29T13:19:26.833Z,17.80
2019-05-29T13:21:57.371Z,18.10
2019-05-29T13:24:27.601Z,17.30
2019-05-29T13:26:59.505Z,16.80
2019-05-29T13:29:33.340Z,18.40
2019-05-29T13:32:07.573Z,16.90
2019-05-29T13:34:41.696Z,15.50
2019-05-29T13:37:14.731Z,15.80
2019-05-29T13:39:48.054Z,14.90
2019-05-29T13:42:24.940Z,14.00
2019-05-29T13:44:59.629Z,14.50
2019-05-29T13:47:34.808Z,13.70
2019-05-29T13:50:11.239Z,15.00
2019-05-29T13:52:45.563Z,15.40
2019-05-29T13:55:19.919Z,15.00
2019-05-29T13:57:50.125Z,15.70
2019-05-29T14:00:33.634Z,13.40
2019-05-29T14:03:06.910Z,14.10
2019-05-29T14:05:39.287Z,13.60
2019-05-29T14:08:10.422Z,10.90
2019-05-29T14:10:42.043Z,11.80
2019-05-29T14:13:15.951Z,8.00
2019-05-29T14:15:49.608Z,6.60
2019-05-29T14:18:30.143Z,5.70
2019-05-29T14:20:58.145Z,6.30
2019-05-29T14:23:28.384Z,9.30
2019-05-29T14:26:02.349Z,9.60
2019-05-29T14:28:40.602Z,9.10
2019-05-29T14:31:14.196Z,10.60
2019-05-29T14:33:48.473Z,11.90
2019-05-29T14:36:23.129Z,15.70
2019-05-29T14:38:56.075Z,15.70
2019-05-29T14:41:38.214Z,13.50
2019-05-29T14:44:10.530Z,13.30
2019-05-29T14:46:42.521Z,8.30
2019-05-29T14:49:14.408Z,7.00
2019-05-29T14:51:51.015Z,4.50
2019-05-29T14:54:40.579Z,2.70
2019-05-29T14:56:59.126Z,3.30
2019-05-29T14:59:29.780Z,5.10
2019-05-29T15:02:16.729Z,6.40
2019-05-29T15:04:42.057Z,7.80
2019-05-29T15:07:23.195Z,8.30
2019-05-29T15:09:57.924Z,8.70
2019-05-29T15:12:37.834Z,10.30
2019-05-29T15:15:09.509Z,10.90
2019-05-29T15:17:42.272Z,12.70
2019-05-29T15:20:16.734Z,13.70
2019-05-29T15:22:47.985Z,14.60
2019-05-29T15:25:24.198Z,15.40
2019-05-29T15:27:52.858Z,17.20
2019-05-29T15:30:24.069Z,15.40
2019-05-29T15:32:57.802Z,16.40
2019-05-29T15:35:31.578Z,16.90
2019-05-29T15:38:06.529Z,17.30
2019-05-29T15:40:36.869Z,18.10
2019-05-29T15:43:20.103Z,17.80
2019-05-29T15:45:54.831Z,18.80
2019-05-29T15:48:29.147Z,17.50
2019-05-29T15:51:02.251Z,18.80
2019-05-29T15:53:37.293Z,19.10
2019-05-29T15:56:21.590Z,19.00
2019-05-29T15:58:46.523Z,20.10
2019-05-29T16:01:17.950Z,20.10
2019-05-29T16:03:48.330Z,20.60
2019-05-29T16:06:18.441Z,21.80
2019-05-29T16:08:52.631Z,22.60
2019-05-29T16:11:29.287Z,21.20
2019-05-29T16:13:59.742Z,21.40
2019-05-29T16:16:35.258Z,22.30
2019-05-29T16:19:10.005Z,24.20
2019-05-29T16:21:43.355Z,24.20
2019-05-29T16:24:14.661Z,24.40
2019-05-29T16:26:44.953Z,23.60
2019-05-29T16:29:17.339Z,26.30
2019-05-29T16:32:07.660Z,27.50
2019-05-29T16:34:39.278Z,26.80
2019-05-29T16:37:11.235Z,27.20
2019-05-29T16:39:43.288Z,27.30
2019-05-29T16:42:14.237Z,26.70
2019-05-29T16:44:44.407Z,26.20
2019-05-29T16:47:18.543Z,26.40
2019-05-29T16:49:49.089Z,26.00
2019-05-29T16:52:19.221Z,25.80
2019-05-29T16:54:49.733Z,27.10
2019-05-29T16:57:21.128Z,26.00
2019-05-29T16:59:53.073Z,26.30
2019-05-29T17:02:26.346Z,27.80
2019-05-29T17:04:58.390Z,28.40
2019-05-29T17:07:28.547Z,29.50
2019-05-29T17:10:02.544Z,29.60
2019-05-29T17:12:33.103Z,30.40
2019-05-29T17:15:04.638Z,28.80
2019-05-29T17:17:35.286Z,28.80
2019-05-29T17:20:07.854Z,28.70
2019-05-29T17:22:38.820Z,29.50
2019-05-29T17:25:09.253Z,29.90
2019-05-29T17:27:41.234Z,30.30
2019-05-29T17:30:12.882Z,29.40
2019-05-29T17:32:43.714Z,30.20
2019-05-29T17:35:14.712Z,28.70
2019-05-29T17:37:45.882Z,29.10
2019-05-29T17:40:18.907Z,29.30
2019-05-29T17:42:51.857Z,29.90
2019-05-29T17:45:27.427Z,28.50
2019-05-29T17:47:57.864Z,28.40
2019-05-29T17:50:31.409Z,29.70
2019-05-29T17:53:02.939Z,29.50
2019-05-29T17:55:33.121Z,28.90
2019-05-29T17:58:03.226Z,29.70
2019-05-29T18:00:33.489Z,28.90
2019-05-29T18:03:03.918Z,28.60
2019-05-29T18:05:36.937Z,28.50
2019-05-29T18:08:07.176Z,29.00
2019-05-29T18:10:38.898Z,28.60
2019-05-29T18:13:09.027Z,29.70
2019-05-29T18:15:39.502Z,29.00
2019-05-29T18:18:09.645Z,29.30
2019-05-29T18:20:39.732Z,29.40
2019-05-29T18:23:10.851Z,28.60
2019-05-29T18:25:43.559Z,28.80
2019-05-29T18:28:15.160Z,29.40
2019-05-29T18:30:51.639Z,29.80
2019-05-29T18:33:22.851Z,31.60
2019-05-29T18:35:53.175Z,32.90
2019-05-29T18:38:24.369Z,32.90
2019-05-29T18:40:56.070Z,34.30
2019-05-29T18:46:05.048Z,37.70
2019-05-29T18:48:36.581Z,39.60
2019-05-29T18:51:06.865Z,41.10
2019-05-29T18:53:37.073Z,43.00
2019-05-29T18:56:07.693Z,43.90
2019-05-29T18:58:42.192Z,46.10
2019-05-29T19:01:14.129Z,47.60
2019-05-29T19:03:44.989Z,49.60
2019-05-29T19:06:15.132Z,48.40
2019-05-29T19:08:45.714Z,51.10
2019-05-29T19:11:17.560Z,55.50
2019-05-29T19:13:52.204Z,58.30
2019-05-29T19:16:27.919Z,57.90
2019-05-29T19:18:58.354Z,56.80
2019-05-29T19:21:28.725Z,56.40
2019-05-29T19:24:02.273Z,55.30
2019-05-29T19:26:36.742Z,55.60
2019-05-29T19:29:11.240Z,55.90
2019-05-29T19:31:42.713Z,56.30
2019-05-29T19:34:15.125Z,57.60
2019-05-29T19:36:45.841Z,60.10
2019-05-29T19:39:17.135Z,61.40
2019-05-29T19:41:50.647Z,64.00
2019-05-29T19:44:20.861Z,66.70
2019-05-29T19:46:54.389Z,66.90
2019-05-29T19:49:27.313Z,65.40
2019-05-29T19:51:57.836Z,66.40
2019-05-29T19:54:29.446Z,69.00
2019-05-29T19:56:59.870Z,67.00
2019-05-29T19:59:30.184Z,69.90
2019-05-29T20:02:02.084Z,70.90
2019-05-29T20:04:32.704Z,73.70
2019-05-29T20:07:03.225Z,77.80
2019-05-29T20:09:33.544Z,76.00
2019-05-29T20:12:04.206Z,75.10
2019-05-29T20:14:37.958Z,78.50
2019-05-29T20:17:10.497Z,79.20
2019-05-29T20:19:42.429Z,79.20
2019-05-29T20:22:14.053Z,81.40
2019-05-29T20:24:52.712Z,84.00
2019-05-29T20:27:23.090Z,85.10
2019-05-29T20:29:56.819Z,82.40
2019-05-29T20:32:27.948Z,79.00
2019-05-29T20:34:59.805Z,78.30
2019-05-29T20:37:34.079Z,79.50
2019-05-29T20:40:07.316Z,81.40
2019-05-29T20:42:42.528Z,81.50
2019-05-29T20:45:13.509Z,80.50
2019-05-29T20:47:44.442Z,78.40
2019-05-29T20:50:21.277Z,78.80
2019-05-29T20:52:56.037Z,77.80
2019-05-29T20:55:27.928Z,80.20
2019-05-29T20:58:00.176Z,80.00
2019-05-29T21:00:31.938Z,83.20
2019-05-29T21:03:06.521Z,86.10
2019-05-29T21:05:36.690Z,85.70
2019-05-29T21:08:06.817Z,84.70
2019-05-29T21:10:40.064Z,84.20
2019-05-29T21:13:11.160Z,81.20
2019-05-29T21:15:47.433Z,80.60
2019-05-29T21:18:17.552Z,79.10
2019-05-29T21:20:47.667Z,76.40
2019-05-29T21:23:21.925Z,73.70
2019-05-29T21:25:55.857Z,75.10
2019-05-29T21:28:39.733Z,77.00
2019-05-29T21:31:00.460Z,83.90
2019-05-29T21:33:30.615Z,87.70
2019-05-29T21:36:00.771Z,85.40
2019-05-29T21:38:30.877Z,83.80
2019-05-29T21:41:02.988Z,82.30
2019-05-29T21:43:33.415Z,83.70
2019-05-29T21:46:04.850Z,83.60
2019-05-29T21:48:40.948Z,84.40
2019-05-29T21:51:12.156Z,86.70
2019-05-29T21:53:43.368Z,86.00
2019-05-29T21:56:14.098Z,81.20
2019-05-29T21:59:00.256Z,81.90
2019-05-29T22:01:18.963Z,80.00
2019-05-29T22:03:51.106Z,81.20
2019-05-29T22:06:23.449Z,82.50
2019-05-29T22:08:54.485Z,84.40
2019-05-29T22:11:24.601Z,84.50
2019-05-29T22:13:56.557Z,83.30
2019-05-29T22:16:27.508Z,86.60
2019-05-29T22:19:03.802Z,88.80
2019-05-29T22:21:32.449Z,90.10
2019-05-29T22:24:02.698Z,90.00
2019-05-29T22:26:32.789Z,90.00
2019-05-29T22:29:17.852Z,88.00
2019-05-29T22:31:38.453Z,80.30
2019-05-29T22:34:08.707Z,83.00
2019-05-29T22:36:41.157Z,86.80
2019-05-29T22:39:11.533Z,87.60
2019-05-29T22:41:43.560Z,87.60
2019-05-29T22:44:13.644Z,88.10
2019-05-29T22:46:46.708Z,88.90
2019-05-29T22:49:18.248Z,88.30
2019-05-29T22:51:49.734Z,83.10
2019-05-29T22:54:21.395Z,79.10
2019-05-29T22:56:52.449Z,82.50
2019-05-29T22:59:31.917Z,84.10
2019-05-29T23:01:56.387Z,86.60
2019-05-29T23:04:26.636Z,88.50
2019-05-29T23:06:56.706Z,86.60
2019-05-29T23:09:29.315Z,84.90
2019-05-29T23:12:00.419Z,85.90
2019-05-29T23:14:30.752Z,80.10
2019-05-29T23:17:02.681Z,80.40
2019-05-29T23:19:37.230Z,80.70
2019-05-29T23:22:08.589Z,78.50
2019-05-29T23:24:39.598Z,78.80
2019-05-29T23:27:09.698Z,80.00
2019-05-29T23:29:48.763Z,81.00
2019-05-29T23:32:16.905Z,82.30
2019-05-29T23:34:47.019Z,83.50
2019-05-29T23:37:17.487Z,87.20
2019-05-29T23:39:47.588Z,90.10
2019-05-29T23:42:17.766Z,90.70
2019-05-29T23:44:51.558Z,90.20
2019-05-29T23:47:20.024Z,89.80
2019-05-29T23:49:51.011Z,87.10
2019-05-29T23:52:21.120Z,85.40
2019-05-29T23:54:51.399Z,82.90
2019-05-29T23:57:22.705Z,82.90
